• Join FlightAware (Why Join?)
  • Login
  • US Flag 
11:15AM EST


 

Airport Tracker/Info


-or-


 

Live Flight TrackerFlight Track Log ✈ SWA706 ✈ 14-Sep-2013 ✈ KDAL - KLIT

Flight Track Log - Related Links

Times and Time Zones

All times are in EDT time to prevent confusion due to time zone crossing. See the SWA706 flight status page for this flight to view local times or setup timezone preferences in your user account.

Time Position Orientation Groundspeed Altitude Reporting Facility
EDT Latitude Longitude Course Direction KTS MPH feet Rate Location/Type
09:19AM 32.8333 -96.8333 121° Southeast 162 186 1,400  Level Dallas / Fort Worth TRACON
09:20AM 32.8000 -96.7667 121° Southeast 241 277 4,000 2,762 Climbing Dallas / Fort Worth TRACON
09:21AM 32.8500 -96.7167 40° Northeast 259 298 7,200 2,902 Climbing Dallas / Fort Worth TRACON
09:22AM 32.9217 -96.5992 54° Northeast 287 330 11,400 2,824 Climbing Fort Worth Center
09:23AM 32.9758 -96.5092 54° Northeast 338 389 14,400 2,732 Climbing Fort Worth Center
09:25AM 33.0372 -96.4075 54° Northeast 354 407 17,000 2,439 Climbing Fort Worth Center
09:26AM 33.0922 -96.3031 58° Northeast 371 427 19,400 2,146 Climbing Fort Worth Center
09:27AM 33.1269 -96.1822 71° East 384 442 21,400 1,756 Climbing Fort Worth Center
09:28AM 33.1675 -96.0447 71° East 407 468 23,000 1,561 Climbing Fort Worth Center
09:29AM 33.2053 -95.9169 71° East 412 474 24,600 1,707 Climbing Fort Worth Center
09:30AM 33.2453 -95.7844 70° East 423 487 26,500 1,707 Climbing Fort Worth Center
09:31AM 33.2828 -95.6514 71° East 426 490 28,100 1,306 Climbing Fort Worth Center
09:32AM 33.3197 -95.5175 72° East 434 499 29,200 1,317 Climbing Fort Worth Center
09:33AM 33.3611 -95.3783 70° East 443 510 30,800 1,512 Climbing Fort Worth Center
09:34AM 33.4003 -95.2381 71° East 444 511 32,300 1,073 Climbing Fort Worth Center
09:35AM 33.4408 -95.1003 71° East 439 505 33,000 341 Climbing Fort Worth Center
09:36AM 33.4900 -94.9303 71° East 447 514 33,000  Level Fort Worth Center
09:37AM 33.5300 -94.7906 71° East 444 511 33,000  Level Fort Worth Center
09:38AM 33.5689 -94.6500 72° East 443 510 33,000  Level Fort Worth Center
09:39AM 33.6097 -94.5092 71° East 444 511 33,000  Level Fort Worth Center
09:40AM 33.6492 -94.3700 71° East 440 506 33,000  Level Fort Worth Center
09:41AM 33.6892 -94.2294 71° East 440 506 33,000  Level Fort Worth Center
09:42AM 33.7475 -94.1025 61° Northeast 432 497 33,000 -585 Level Fort Worth Center
09:43AM 33.8094 -93.9764 59° Northeast 434 499 31,800 -1,759 Descending Fort Worth Center
09:44AM 33.8867 -93.8278 58° Northeast 413 475 29,100 -2,244 Descending Memphis Center
09:45AM 33.9419 -93.7097 61° Northeast 413 475 26,900 -2,150 Descending Memphis Center
09:46AM 33.9972 -93.5967 59° Northeast 403 464 24,800 -2,100 Descending Memphis Center
09:47AM 34.0522 -93.4858 59° Northeast 396 456 22,700 -2,050 Descending Memphis Center
09:48AM 34.1028 -93.3825 59° Northeast 374 430 20,700 -1,950 Descending Memphis Center
09:49AM 34.1511 -93.2811 60° Northeast 362 417 18,800 -1,761 Descending Memphis Center
09:50AM 34.1883 -93.1994 61° Northeast 343 395 17,500 -1,600 Descending Memphis Center
09:50AM 34.2014 -93.1800 51° Northeast 348 400 17,200 -2,091 Descending Memphis Center
09:51AM 34.2431 -93.0883 61° Northeast 329 379 15,200 -2,000 Descending Memphis Center
09:51AM 34.2475 -93.0833 43° Northeast 338 389 15,200 -2,361 Level Memphis Center
09:52AM 34.2975 -92.9869 58° Northeast 332 382 12,800 -2,200 Descending Memphis Center
09:52AM 34.2994 -92.9919 295° West 328 377 13,000 -1,781 Climbing Memphis Center
09:53AM 34.3494 -92.8981 57° Northeast 328 377 10,900 -2,476 Descending Memphis Center
09:53AM 34.3539 -92.8856 67° East 331 381 10,400 -1,000 Descending Memphis Center
09:54AM 34.3969 -92.8089 56° Northeast 322 371 9,900 -900 Descending Memphis Center
09:54AM 34.4014 -92.8039 43° Northeast 299 344 9,500 -1,600 Descending Memphis Center
09:55AM 34.4403 -92.7319 57° Northeast 296 341 8,300 -1,574 Descending Memphis Center
09:55AM 34.4447 -92.7194 67° East 278 320 7,900 -1,600 Descending Memphis Center
09:56AM 34.4814 -92.6525 56° Northeast 284 327 6,700 -1,562 Descending Memphis Center
09:56AM 34.4967 -92.6228 58° Northeast 279 321 6,000 -1,600 Descending Memphis Center
09:57AM 34.5267 -92.5731 54° Northeast 278 320 5,100 -1,625 Descending Memphis Center
09:57AM 34.5311 -92.5606 67° East 278 320 4,700 -1,100 Descending Memphis Center
09:58AM 34.5678 -92.4958 55° Northeast 273 314 4,000 -885 Descending Memphis Center
09:58AM 34.5697 -92.4883 73° East 267 307 3,800 -818 Descending Memphis Center
09:59AM 34.6064 -92.4236 55° Northeast 212 244 3,100 -789 Descending Memphis Center
10:00AM 34.6344 -92.3714 57° Northeast 228 262 2,300 -1,091 Descending Memphis Center
10:00AM 34.6344 -92.3714 57° Northeast 203 234 2,100 -400 Descending Memphis Center
10:01AM 34.6644 -92.3192 55° Northeast 206 237 1,900 -300 Descending Memphis Center
10:01AM 34.6644 -92.3164 90° East 181 208 1,800 -600 Descending Memphis Center
10:02AM 34.6900 -92.2792 50° Northeast 174 200 1,300 -716 Descending Memphis Center
10:02AM 34.6944 -92.2742 43° Northeast 128 147 1,000 -300 Descending Memphis Center
10:03AM 34.7200 -92.2294 55° Northeast 161 185 1,000  Level Memphis Center